Time;durP1;ratioP1;P1;durP2;ratioP2;P2;SDS_P1;SDS_P2;PMS_P1;PMS_P2;Temp;Humidity;BMP_temperature;BMP_pressure;BME280_temperature;BME280_humidity;BME280_pressure;Samples;Min_cycle;Max_cycle;Signal;HPM_P1;HPM_P2
2021/12/09 00:00:18;;;;;;;;;2.25;1.00;;;;;5.46;65.36;99901.97;4982580;28;45706;-66
2021/12/09 00:02:44;;;;;;;;;0.25;0.25;;;;;5.41;65.61;99888.16;4976187;28;45404;-64
2021/12/09 00:05:16;;;;;;;;;1.00;1.00;;;;;5.46;66.42;99899.34;4974704;28;45176;-70
2021/12/09 00:07:42;;;;;;;;;1.00;1.00;;;;;5.43;66.35;99899.50;4968026;28;45455;-71
2021/12/09 00:10:10;;;;;;;;;1.00;1.00;;;;;5.44;66.44;99896.78;4993169;27;45468;-61
2021/12/09 00:12:36;;;;;;;;;0.00;0.00;;;;;5.37;66.13;99884.81;4964369;28;45223;-67
2021/12/09 00:15:04;;;;;;;;;0.75;0.75;;;;;5.43;65.98;99907.41;4964090;28;45596;-69
2021/12/09 00:17:30;;;;;;;;;1.25;1.25;;;;;5.42;65.45;99903.91;4976253;28;45370;-65
2021/12/09 00:19:55;;;;;;;;;4.50;3.00;;;;;5.40;65.68;99902.28;4992980;28;45737;-61
2021/12/09 00:22:21;;;;;;;;;1.00;1.00;;;;;5.40;66.08;99902.28;4968562;28;45544;-63
2021/12/09 00:24:46;;;;;;;;;5.00;0.50;;;;;5.41;65.94;99907.47;4971693;28;45527;-68
2021/12/09 00:27:12;;;;;;;;;0.25;0.25;;;;;5.43;65.70;99894.22;4987261;27;45607;-64
2021/12/09 00:29:37;;;;;;;;;1.00;1.00;;;;;5.44;65.73;99895.94;4990578;28;45457;-64
2021/12/09 00:32:03;;;;;;;;;1.25;1.25;;;;;5.39;66.14;99896.16;4966301;28;46223;-68
2021/12/09 00:34:34;;;;;;;;;2.25;1.00;;;;;5.38;66.25;99896.22;4982997;28;45239;-69
2021/12/09 00:37:17;;;;;;;;;0.50;0.00;;;;;5.43;66.51;99900.34;4994705;28;45250;-65
2021/12/09 00:39:44;;;;;;;;;0.00;0.00;;;;;5.44;65.49;99895.94;5046654;28;45336;-66
2021/12/09 00:42:10;;;;;;;;;1.00;1.00;;;;;5.45;66.38;99910.81;4978803;28;45478;-67
2021/12/09 00:44:36;;;;;;;;;0.50;0.25;;;;;5.43;65.65;99910.03;4979282;28;45634;-63
2021/12/09 00:47:03;;;;;;;;;0.00;0.00;;;;;5.43;65.83;99912.69;4979436;28;45638;-66
2021/12/09 00:49:30;;;;;;;;;0.25;0.25;;;;;5.41;65.66;99906.63;4978955;28;45612;-65
2021/12/09 00:51:57;;;;;;;;;1.00;1.00;;;;;5.46;65.93;99920.44;4961447;28;47534;-63
2021/12/09 00:54:22;;;;;;;;;1.00;0.00;;;;;5.45;66.61;99919.59;4981607;28;45522;-73
2021/12/09 00:56:48;;;;;;;;;1.25;1.25;;;;;5.42;65.83;99924.16;4990021;28;45157;-64
2021/12/09 00:59:14;;;;;;;;;0.75;0.00;;;;;5.35;65.73;99912.19;4980839;28;45651;-65
2021/12/09 01:01:39;;;;;;;;;0.00;0.00;;;;;5.46;66.70;99918.66;4983640;28;45906;-66
2021/12/09 01:04:05;;;;;;;;;4.00;0.75;;;;;5.47;65.86;99927.41;4984655;28;45322;-69
2021/12/09 01:06:30;;;;;;;;;0.00;0.00;;;;;5.49;66.37;99923.81;4987830;28;46758;-68
2021/12/09 01:08:56;;;;;;;;;1.75;1.75;;;;;5.48;66.31;99915.97;4982155;28;45569;-66
2021/12/09 01:11:21;;;;;;;;;1.50;0.75;;;;;5.50;66.64;99914.13;4980682;28;46134;-64
2021/12/09 01:13:47;;;;;;;;;1.25;1.00;;;;;5.48;66.11;99908.06;4960590;28;45482;-64
2021/12/09 01:16:12;;;;;;;;;0.00;0.00;;;;;5.51;65.44;99913.19;4972659;28;45524;-69
2021/12/09 01:18:39;;;;;;;;;0.75;0.75;;;;;5.49;66.17;99920.31;4993211;28;45618;-65
2021/12/09 01:21:05;;;;;;;;;1.50;0.00;;;;;5.52;66.49;99920.19;4986881;28;45521;-67
2021/12/09 01:23:30;;;;;;;;;0.00;0.00;;;;;5.56;65.83;99927.00;4989151;28;45627;-72
2021/12/09 01:26:01;;;;;;;;;5.00;0.50;;;;;5.54;66.08;99918.31;4989709;28;45472;-67
2021/12/09 01:28:29;;;;;;;;;1.00;0.00;;;;;5.57;65.80;99936.63;4991837;28;45401;-70
2021/12/09 01:31:01;;;;;;;;;0.00;0.00;;;;;5.59;65.30;99933.00;4984903;28;45319;-64
2021/12/09 01:33:31;;;;;;;;;2.00;0.00;;;;;5.52;65.74;99925.44;4993144;28;45484;-65
2021/12/09 01:35:57;;;;;;;;;1.00;0.00;;;;;5.66;66.13;99938.00;4974206;28;45358;-70
2021/12/09 01:38:25;;;;;;;;;0.00;0.00;;;;;5.66;65.31;99938.00;4986693;28;45578;-70
2021/12/09 01:40:50;;;;;;;;;2.50;0.00;;;;;5.68;64.83;99942.28;4979353;28;45682;-70
2021/12/09 01:43:16;;;;;;;;;2.25;1.00;;;;;5.63;65.08;99923.19;4971740;28;46616;-66
2021/12/09 01:45:41;;;;;;;;;3.75;1.00;;;;;5.72;65.09;99943.84;4989602;28;45287;-64
2021/12/09 01:48:07;;;;;;;;;1.00;0.00;;;;;5.73;65.76;99944.69;4974053;28;45664;-65
2021/12/09 01:50:34;;;;;;;;;0.00;0.00;;;;;5.73;65.22;99950.84;4988649;28;45766;-67
2021/12/09 01:53:00;;;;;;;;;1.75;0.00;;;;;5.77;64.84;99947.13;4976246;28;45449;-66
2021/12/09 01:55:27;;;;;;;;;0.00;0.00;;;;;5.79;64.72;99950.56;4992776;28;45628;-62
2021/12/09 01:57:53;;;;;;;;;4.75;1.50;;;;;5.83;64.54;99957.38;4992584;28;45381;-68
2021/12/09 02:00:27;;;;;;;;;0.00;0.00;;;;;5.88;65.30;99954.56;4982921;28;46144;-66
2021/12/09 02:02:53;;;;;;;;;0.00;0.00;;;;;5.83;64.60;99948.63;4990026;28;45562;-69
2021/12/09 02:05:19;;;;;;;;;1.00;1.00;;;;;5.87;65.01;99958.97;4959641;28;46046;-71
2021/12/09 02:07:45;;;;;;;;;0.00;0.00;;;;;5.86;64.73;99959.91;4980371;28;45481;-66
2021/12/09 02:10:14;;;;;;;;;2.00;0.00;;;;;5.89;65.20;99959.75;4987348;27;45465;-62
2021/12/09 02:12:40;;;;;;;;;1.25;1.00;;;;;5.93;64.68;99957.84;4961472;28;45498;-63
2021/12/09 02:15:06;;;;;;;;;0.00;0.00;;;;;5.93;65.07;99949.09;4990007;28;45276;-64
2021/12/09 02:17:32;;;;;;;;;2.00;1.00;;;;;5.98;65.13;99957.63;4991400;28;45456;-65
2021/12/09 02:20:00;;;;;;;;;1.00;1.00;;;;;6.01;65.09;99961.00;4978490;28;46254;-67
2021/12/09 02:22:28;;;;;;;;;2.00;2.00;;;;;6.01;64.85;99963.63;4983477;28;45456;-68
2021/12/09 02:24:55;;;;;;;;;2.00;2.00;;;;;6.02;64.41;99946.00;4977126;28;45519;-65
2021/12/09 02:27:22;;;;;;;;;1.75;1.50;;;;;6.01;64.03;99945.16;4990659;28;45310;-64
2021/12/09 02:29:49;;;;;;;;;4.00;1.00;;;;;6.02;64.04;99946.00;4991272;28;45283;-67
2021/12/09 02:32:14;;;;;;;;;5.00;1.00;;;;;6.03;64.16;99953.00;4962397;28;45887;-60
2021/12/09 02:34:40;;;;;;;;;0.75;0.75;;;;;6.05;64.45;99956.41;4976359;28;45265;-62
2021/12/09 02:37:08;;;;;;;;;0.00;0.00;;;;;6.05;64.27;99951.13;5006813;27;45688;-62
2021/12/09 02:39:34;;;;;;;;;1.00;1.00;;;;;6.07;65.17;99957.19;4993183;28;46414;-63
2021/12/09 02:42:00;;;;;;;;;2.00;0.00;;;;;6.06;64.97;99963.41;4988538;28;45247;-64
2021/12/09 02:44:25;;;;;;;;;0.00;0.00;;;;;6.07;64.42;99955.41;4959095;28;45451;-65
2021/12/09 02:46:55;;;;;;;;;0.00;0.00;;;;;6.06;64.29;99953.72;4979497;28;45440;-65
2021/12/09 02:49:23;;;;;;;;;1.00;1.00;;;;;6.07;64.79;99959.84;4970363;28;45507;-67
2021/12/09 02:51:51;;;;;;;;;4.00;0.00;;;;;6.00;64.63;99953.16;4987134;28;45543;-62
2021/12/09 02:54:20;;;;;;;;;0.50;0.50;;;;;5.99;64.02;99954.06;4991161;28;45244;-68
2021/12/09 02:56:48;;;;;;;;;1.50;0.00;;;;;6.01;64.63;99955.72;4995889;28;45477;-69
2021/12/09 02:59:14;;;;;;;;;2.25;0.50;;;;;5.99;64.64;99973.41;4992263;28;46507;-63
2021/12/09 03:01:54;;;;;;;;;1.00;1.00;;;;;5.95;64.91;99970.97;4971037;28;45578;-64
2021/12/09 03:04:20;;;;;;;;;2.00;0.00;;;;;5.90;64.34;99964.13;4994516;28;45440;-66
2021/12/09 03:06:45;;;;;;;;;1.00;1.00;;;;;5.91;64.54;99968.47;4990326;28;45452;-62
2021/12/09 03:09:17;;;;;;;;;0.00;0.00;;;;;5.88;65.13;99973.88;4977047;28;47665;-65
2021/12/09 03:11:45;;;;;;;;;0.25;0.25;;;;;5.94;64.20;99974.53;4987661;28;45480;-65
2021/12/09 03:14:11;;;;;;;;;0.00;0.00;;;;;5.91;64.50;99979.03;4985091;28;45580;-67
2021/12/09 03:16:40;;;;;;;;;0.00;0.00;;;;;5.87;64.77;99973.97;4976303;28;45370;-65
2021/12/09 03:19:08;;;;;;;;;0.00;0.00;;;;;5.94;64.67;99980.69;4958302;28;45444;-66
2021/12/09 03:21:38;;;;;;;;;1.00;1.00;;;;;5.95;64.58;99971.81;4984317;28;45392;-64
2021/12/09 03:24:08;;;;;;;;;0.00;0.00;;;;;5.85;64.23;99958.16;4993435;28;45328;-67
2021/12/09 03:26:41;;;;;;;;;0.25;0.00;;;;;5.89;64.52;99972.09;4990141;28;45574;-63
2021/12/09 03:29:09;;;;;;;;;0.75;0.75;;;;;5.92;64.46;99971.97;4992784;28;46309;-66
2021/12/09 03:31:41;;;;;;;;;0.00;0.00;;;;;5.95;65.61;99971.81;4967059;28;45394;-66
2021/12/09 03:34:10;;;;;;;;;0.00;0.00;;;;;5.91;65.04;99960.56;4985187;28;45351;-67
2021/12/09 03:36:36;;;;;;;;;0.00;0.00;;;;;5.93;65.00;99962.28;4975663;28;45414;-67
2021/12/09 03:39:07;;;;;;;;;0.00;0.00;;;;;5.99;64.83;99973.41;4973965;28;45520;-66
2021/12/09 03:41:33;;;;;;;;;0.00;0.00;;;;;6.00;64.80;99979.56;4976356;28;45277;-63
2021/12/09 03:43:59;;;;;;;;;0.50;0.50;;;;;6.01;64.87;99991.81;4972279;28;45452;-65
2021/12/09 03:46:24;;;;;;;;;0.00;0.00;;;;;6.00;64.55;99984.81;4977663;28;45648;-62
2021/12/09 03:48:50;;;;;;;;;0.00;0.00;;;;;6.00;65.25;99987.47;4994803;28;46109;-61
2021/12/09 03:51:15;;;;;;;;;1.00;0.00;;;;;6.02;64.81;99985.59;4968782;28;45441;-68
2021/12/09 03:53:41;;;;;;;;;0.50;0.50;;;;;6.05;64.42;99988.09;4979114;28;45448;-74
2021/12/09 03:56:06;;;;;;;;;1.00;0.25;;;;;6.03;64.26;99980.25;4981267;28;45422;-68
2021/12/09 03:58:32;;;;;;;;;2.50;1.00;;;;;6.03;64.43;99988.16;4984579;28;45445;-66
2021/12/09 04:00:57;;;;;;;;;3.50;0.75;;;;;6.01;64.51;99991.81;4986909;28;45422;-68
2021/12/09 04:03:23;;;;;;;;;0.75;0.75;;;;;6.06;64.29;100005.66;4976737;28;45356;-66
2021/12/09 04:05:50;;;;;;;;;2.50;0.50;;;;;6.06;64.75;100006.50;4967846;28;45509;-64
2021/12/09 04:08:16;;;;;;;;;0.00;0.00;;;;;6.02;64.85;100004.09;4992990;28;45480;-63
2021/12/09 04:10:43;;;;;;;;;2.50;0.75;;;;;6.07;64.61;100012.63;4989319;28;45596;-63
2021/12/09 04:13:09;;;;;;;;;0.75;0.75;;;;;6.09;64.63;100005.50;4977224;28;45408;-63
2021/12/09 04:15:35;;;;;;;;;1.00;0.00;;;;;6.05;64.08;100004.78;4975320;28;45480;-64
2021/12/09 04:18:00;;;;;;;;;0.75;0.00;;;;;6.08;64.27;100009.91;4980260;28;45614;-66
2021/12/09 04:20:26;;;;;;;;;1.00;1.00;;;;;6.08;64.20;100009.06;4990534;28;45487;-60
2021/12/09 04:22:54;;;;;;;;;1.00;0.00;;;;;6.07;64.10;100002.06;4987328;27;45400;-65
2021/12/09 04:25:23;;;;;;;;;1.25;1.25;;;;;6.00;65.24;99998.88;4976283;28;45236;-69
2021/12/09 04:27:50;;;;;;;;;0.00;0.00;;;;;6.02;65.00;100002.31;4988349;28;46198;-67
2021/12/09 04:30:16;;;;;;;;;6.25;1.00;;;;;6.08;64.77;100009.06;4988876;28;45410;-67
2021/12/09 04:32:42;;;;;;;;;1.00;1.00;;;;;6.08;64.85;100006.41;4980271;28;45532;-66
2021/12/09 04:35:09;;;;;;;;;4.00;1.00;;;;;6.11;64.40;100014.19;4994707;28;45521;-63
2021/12/09 04:37:36;;;;;;;;;1.75;0.50;;;;;6.07;64.16;100007.34;4976128;28;45286;-67
2021/12/09 04:40:04;;;;;;;;;2.00;1.00;;;;;6.07;64.61;100007.34;4975278;28;45291;-63
2021/12/09 04:42:30;;;;;;;;;1.00;1.00;;;;;6.05;64.28;100009.22;4978871;28;45508;-63
2021/12/09 04:44:55;;;;;;;;;0.00;0.00;;;;;6.02;64.40;100004.94;4982735;28;45554;-63
2021/12/09 04:47:21;;;;;;;;;0.00;0.00;;;;;5.98;64.16;100002.50;4980890;28;46433;-62
2021/12/09 04:49:47;;;;;;;;;4.25;1.00;;;;;6.06;64.35;100010.94;4993296;28;45359;-64
2021/12/09 04:52:13;;;;;;;;;1.25;0.00;;;;;6.04;64.96;100004.88;4993695;28;45533;-65
2021/12/09 04:54:41;;;;;;;;;0.00;0.00;;;;;6.02;64.76;100009.38;4991197;28;45656;-65
2021/12/09 04:57:07;;;;;;;;;1.00;1.00;;;;;6.06;64.61;100024.13;5006822;28;45306;-64
2021/12/09 04:59:32;;;;;;;;;4.50;1.00;;;;;6.02;64.34;100004.94;4961822;28;45526;-61
2021/12/09 05:01:59;;;;;;;;;0.00;0.00;;;;;6.06;65.16;100014.41;4989102;27;45454;-63
2021/12/09 05:04:24;;;;;;;;;1.00;1.00;;;;;6.04;65.12;100008.34;4966668;28;45877;-67
2021/12/09 05:06:50;;;;;;;;;1.50;0.25;;;;;6.03;64.74;100008.44;4987714;28;45741;-63
2021/12/09 05:09:18;;;;;;;;;1.00;1.00;;;;;6.05;64.63;100014.50;4985897;28;45821;-67
2021/12/09 05:14:11;;;;;;;;;1.00;1.00;;;;;6.06;64.59;100008.28;4991205;28;45481;-67
2021/12/09 05:16:36;;;;;;;;;1.00;1.00;;;;;6.05;65.28;100003.94;4993678;28;45249;-64
2021/12/09 05:19:02;;;;;;;;;1.75;0.75;;;;;6.01;65.16;100003.22;4983961;28;45305;-67
2021/12/09 05:21:34;;;;;;;;;1.00;1.00;;;;;6.06;64.96;100005.66;4976711;28;45462;-70
2021/12/09 05:24:00;;;;;;;;;2.00;1.00;;;;;6.06;64.56;100001.22;4992194;28;45365;-66
2021/12/09 05:26:30;;;;;;;;;2.50;1.00;;;;;6.07;65.03;100010.84;4974251;28;45990;-63
2021/12/09 05:28:57;;;;;;;;;1.00;1.00;;;;;6.02;64.93;100009.38;4961571;28;45481;-66
2021/12/09 05:34:11;;;;;;;;;0.00;0.00;;;;;6.09;64.94;100016.91;4974822;28;45295;-64
2021/12/09 05:36:37;;;;;;;;;1.00;1.00;;;;;6.06;64.87;100009.13;4956382;28;46239;-64
2021/12/09 05:39:07;;;;;;;;;1.00;1.00;;;;;6.13;64.75;100013.22;4974670;28;45363;-68
2021/12/09 05:41:33;;;;;;;;;2.50;1.00;;;;;6.13;64.25;100020.28;4957019;28;45538;-64
2021/12/09 05:44:01;;;;;;;;;2.00;0.00;;;;;6.12;64.56;100022.06;4978748;28;45453;-68
2021/12/09 05:46:27;;;;;;;;;3.25;0.75;;;;;6.04;65.06;100024.19;4984425;28;45318;-69
2021/12/09 05:48:55;;;;;;;;;3.50;0.50;;;;;6.09;64.69;100029.25;4975025;28;45230;-68
2021/12/09 05:51:25;;;;;;;;;1.00;1.00;;;;;6.10;65.12;100028.31;4988059;28;45482;-67
2021/12/09 05:53:51;;;;;;;;;1.50;1.00;;;;;6.11;64.62;100030.88;4989303;28;45553;-66
2021/12/09 05:56:18;;;;;;;;;1.25;1.25;;;;;6.14;65.09;100027.28;4966053;28;45350;-65
2021/12/09 05:58:43;;;;;;;;;1.00;1.00;;;;;6.14;64.27;100037.84;4969302;28;45506;-67
2021/12/09 06:01:09;;;;;;;;;2.00;2.00;;;;;6.09;64.57;100037.16;4979213;28;45470;-68
2021/12/09 06:03:34;;;;;;;;;1.75;1.00;;;;;6.13;65.21;100047.53;4993620;28;45385;-63
2021/12/09 06:06:00;;;;;;;;;1.00;1.00;;;;;6.11;64.26;100030.88;4987513;28;45545;-66
2021/12/09 06:08:26;;;;;;;;;2.50;1.00;;;;;6.07;64.29;100044.31;4946533;28;45608;-67
2021/12/09 06:10:52;;;;;;;;;1.00;1.00;;;;;6.06;65.27;100032.91;4974282;28;45838;-71
2021/12/09 06:13:17;;;;;;;;;1.00;1.00;;;;;6.03;64.58;100038.31;4973840;28;45500;-64
2021/12/09 06:15:43;;;;;;;;;1.25;1.00;;;;;6.06;64.71;100035.53;4990060;28;46809;-68
2021/12/09 06:18:09;;;;;;;;;1.50;1.50;;;;;6.06;64.93;100046.09;4996256;28;45456;-64
2021/12/09 06:20:34;;;;;;;;;5.00;1.25;;;;;6.04;64.91;100047.09;4981461;28;45520;-70
2021/12/09 06:23:00;;;;;;;;;4.25;2.00;;;;;6.06;65.34;100050.53;4987966;28;45584;-69
2021/12/09 06:25:26;;;;;;;;;0.00;0.00;;;;;6.07;64.93;100057.50;4988512;28;45243;-67
2021/12/09 06:27:54;;;;;;;;;1.00;1.00;;;;;6.03;65.40;100046.25;4986196;28;45464;-66
2021/12/09 06:30:21;;;;;;;;;2.00;0.00;;;;;6.02;64.65;100056.88;4987620;28;45567;-70
2021/12/09 06:32:46;;;;;;;;;4.25;2.00;;;;;6.00;65.15;100053.47;4985037;28;45338;-68
2021/12/09 06:35:13;;;;;;;;;4.00;2.00;;;;;6.01;65.41;100060.44;4956979;28;47407;-67
2021/12/09 06:37:43;;;;;;;;;4.75;1.25;;;;;6.04;65.12;100063.78;4984697;28;45588;-70
2021/12/09 06:40:11;;;;;;;;;4.75;2.00;;;;;6.09;64.93;100063.56;4959081;28;45441;-65
2021/12/09 06:42:36;;;;;;;;;4.50;2.00;;;;;6.06;64.98;100055.81;4970926;28;45335;-67
2021/12/09 06:45:03;;;;;;;;;5.25;1.75;;;;;6.10;64.60;100071.41;4956574;28;46848;-72
2021/12/09 06:47:29;;;;;;;;;2.00;2.00;;;;;6.09;64.55;100084.69;4973028;28;45464;-65
2021/12/09 06:49:54;;;;;;;;;4.25;4.25;;;;;6.10;65.10;100079.34;4986975;28;45438;-68
2021/12/09 06:52:19;;;;;;;;;2.50;2.50;;;;;6.08;65.22;100078.56;4992950;28;45501;-64
2021/12/09 06:54:45;;;;;;;;;2.50;2.50;;;;;6.11;65.24;100083.69;4978911;28;46067;-62
2021/12/09 06:57:10;;;;;;;;;4.00;2.00;;;;;6.11;63.91;100082.84;4988742;28;45772;-62
2021/12/09 06:59:36;;;;;;;;;2.75;2.50;;;;;6.04;64.49;100082.28;4973628;28;45501;-64
2021/12/09 07:02:02;;;;;;;;;4.00;1.75;;;;;6.02;64.32;100086.78;4969608;28;45490;-62
2021/12/09 07:04:27;;;;;;;;;5.00;2.50;;;;;5.98;64.13;100087.81;4973325;28;45322;-62
2021/12/09 07:06:53;;;;;;;;;4.00;4.00;;;;;5.95;64.82;100087.09;4989390;28;45457;-65
2021/12/09 07:09:18;;;;;;;;;2.00;2.00;;;;;5.99;64.42;100091.31;4981213;28;45401;-65
2021/12/09 07:11:49;;;;;;;;;4.00;4.00;;;;;6.00;64.58;100096.53;4987159;28;45709;-63
2021/12/09 07:14:15;;;;;;;;;3.50;1.00;;;;;6.00;64.90;100079.84;4990832;28;46162;-66
2021/12/09 07:16:40;;;;;;;;;3.00;3.00;;;;;5.98;64.43;100084.31;4995758;27;45370;-61
2021/12/09 07:19:06;;;;;;;;;3.00;3.00;;;;;5.94;64.61;100091.53;4980275;28;45343;-62
2021/12/09 07:21:31;;;;;;;;;5.00;3.00;;;;;5.94;64.63;100088.88;4976738;28;45232;-61
2021/12/09 07:23:57;;;;;;;;;4.25;2.50;;;;;5.90;64.94;100084.69;4985201;28;46044;-62
2021/12/09 07:26:22;;;;;;;;;3.50;3.50;;;;;5.91;65.40;100087.25;4987682;28;45511;-63
2021/12/09 07:28:48;;;;;;;;;1.50;1.50;;;;;5.95;65.00;100090.59;4991043;28;45406;-62
2021/12/09 07:31:16;;;;;;;;;4.00;4.00;;;;;5.94;65.34;100090.66;4990516;28;45322;-62
2021/12/09 07:33:42;;;;;;;;;4.75;4.75;;;;;5.88;64.82;100081.22;4984150;28;45664;-63
2021/12/09 07:36:07;;;;;;;;;4.00;4.00;;;;;5.94;64.72;100088.88;4994308;28;45493;-62
2021/12/09 07:38:33;;;;;;;;;4.00;4.00;;;;;5.94;64.76;100080.09;4971411;28;45800;-63
2021/12/09 07:40:59;;;;;;;;;3.50;3.50;;;;;5.92;65.29;100088.09;4993283;28;45702;-63
2021/12/09 07:43:25;;;;;;;;;6.00;4.00;;;;;5.90;65.19;100079.41;4994872;27;46051;-63
2021/12/09 07:45:50;;;;;;;;;2.00;2.00;;;;;5.87;65.69;100090.94;4994745;28;45366;-62
2021/12/09 07:48:16;;;;;;;;;6.75;5.00;;;;;5.93;64.94;100087.16;4994792;28;45310;-62
2021/12/09 07:50:41;;;;;;;;;4.75;4.00;;;;;5.84;65.50;100072.56;4970117;28;45517;-61
2021/12/09 07:53:07;;;;;;;;;6.50;4.25;;;;;5.88;64.83;100091.78;4974849;28;45358;-61
2021/12/09 07:55:32;;;;;;;;;4.00;4.00;;;;;5.88;65.12;100092.63;4987236;28;45365;-61
2021/12/09 07:57:58;;;;;;;;;4.00;4.00;;;;;5.87;65.75;100093.56;4973008;28;45416;-60
2021/12/09 08:00:27;;;;;;;;;8.00;4.00;;;;;5.90;64.82;100092.59;4981922;28;45931;-61
2021/12/09 08:02:54;;;;;;;;;5.00;5.00;;;;;5.89;65.43;100088.22;4989070;28;46196;-61
2021/12/09 08:05:20;;;;;;;;;2.00;2.00;;;;;5.85;64.69;100089.25;4972050;28;45508;-64
2021/12/09 08:07:46;;;;;;;;;3.00;3.00;;;;;5.86;65.09;100089.22;4985003;28;45181;-62
2021/12/09 08:10:15;;;;;;;;;5.00;5.00;;;;;5.95;64.41;100102.94;4962264;28;45694;-63
2021/12/09 08:12:40;;;;;;;;;6.50;4.00;;;;;5.94;65.12;100107.34;4998860;28;45423;-63
2021/12/09 08:15:09;;;;;;;;;4.00;1.75;;;;;5.91;65.18;100097.81;4993882;28;45388;-64
2021/12/09 08:20:14;;;;;;;;;4.50;2.50;;;;;5.87;65.32;100106.75;4994470;28;45351;-62
2021/12/09 08:22:42;;;;;;;;;8.00;5.50;;;;;5.84;64.81;100103.38;4994317;28;46615;-63
2021/12/09 08:25:12;;;;;;;;;8.00;5.00;;;;;5.86;64.62;100096.28;4992775;28;45412;-62
2021/12/09 08:27:38;;;;;;;;;3.50;3.50;;;;;5.84;64.22;100096.31;4994578;28;45173;-64
2021/12/09 08:30:06;;;;;;;;;4.00;4.00;;;;;5.86;65.19;100099.78;4993574;28;45497;-63
2021/12/09 08:32:34;;;;;;;;;5.25;5.25;;;;;5.86;65.33;100094.50;4995417;28;45429;-61
2021/12/09 08:35:00;;;;;;;;;8.50;5.50;;;;;5.89;64.41;100090.84;4987204;28;45460;-62
2021/12/09 08:37:25;;;;;;;;;3.50;3.50;;;;;5.87;64.48;100090.94;4980917;28;45505;-64
2021/12/09 08:39:51;;;;;;;;;6.25;4.50;;;;;5.86;64.61;100089.22;4973008;28;45257;-62
2021/12/09 08:42:17;;;;;;;;;6.25;6.25;;;;;5.90;64.78;100100.50;4990020;28;45898;-62
2021/12/09 08:44:44;;;;;;;;;5.75;5.75;;;;;5.88;64.09;100104.97;4994003;28;45635;-63
2021/12/09 08:47:10;;;;;;;;;5.00;5.00;;;;;5.91;64.97;100110.16;4991948;28;45438;-63
2021/12/09 08:49:35;;;;;;;;;9.00;6.25;;;;;5.88;64.80;100102.34;4994280;28;45502;-63
2021/12/09 08:52:01;;;;;;;;;5.00;5.00;;;;;5.91;64.37;100103.09;4993416;28;45984;-62
2021/12/09 08:54:26;;;;;;;;;5.25;5.25;;;;;5.95;64.69;100110.84;4993251;28;45408;-64
2021/12/09 08:56:52;;;;;;;;;6.25;6.25;;;;;5.98;64.16;100116.00;4974928;28;45873;-63
2021/12/09 08:59:22;;;;;;;;;6.25;2.00;;;;;6.00;64.54;100120.31;4973744;28;45544;-63
2021/12/09 09:01:51;;;;;;;;;14.50;7.50;;;;;6.03;64.42;100116.66;4989857;28;45200;-63
2021/12/09 09:04:17;;;;;;;;;9.75;5.00;;;;;6.05;64.00;100131.50;4976079;28;45484;-67
2021/12/09 09:06:53;;;;;;;;;5.50;5.50;;;;;6.02;64.62;100126.38;4993442;28;45921;-66
2021/12/09 09:09:19;;;;;;;;;9.50;6.25;;;;;6.11;63.98;100138.28;4993296;28;45512;-66
2021/12/09 09:11:44;;;;;;;;;5.75;4.25;;;;;6.12;64.53;100140.88;4994096;28;46426;-63
2021/12/09 09:14:10;;;;;;;;;4.25;4.00;;;;;6.17;64.72;100145.94;4994441;28;45413;-65
2021/12/09 09:16:35;;;;;;;;;5.00;5.00;;;;;6.20;64.15;100151.94;4993592;28;45344;-62
2021/12/09 09:19:01;;;;;;;;;4.00;4.00;;;;;6.18;64.10;100151.13;4993333;28;45465;-62
2021/12/09 09:21:28;;;;;;;;;9.50;6.50;;;;;6.19;64.14;100136.16;4975347;28;47054;-63
2021/12/09 09:23:55;;;;;;;;;7.75;5.00;;;;;6.24;64.52;100151.78;4993545;28;46096;-62
2021/12/09 09:26:20;;;;;;;;;7.00;5.00;;;;;6.22;63.95;100139.50;4992361;28;45404;-64
2021/12/09 09:28:46;;;;;;;;;4.00;4.00;;;;;6.24;64.13;100151.78;4986929;28;45338;-62
2021/12/09 09:31:12;;;;;;;;;4.75;4.75;;;;;6.32;64.53;100154.94;4986929;28;45556;-64
2021/12/09 09:33:37;;;;;;;;;4.00;4.00;;;;;6.37;64.11;100161.72;4972181;28;45763;-64
2021/12/09 09:36:03;;;;;;;;;6.75;6.25;;;;;6.39;64.01;100161.66;4992154;28;45473;-63
2021/12/09 09:38:28;;;;;;;;;8.50;5.00;;;;;6.39;63.70;100149.31;4993653;28;45615;-63
2021/12/09 09:41:04;;;;;;;;;4.00;4.00;;;;;6.48;63.45;100158.59;4993368;28;46043;-62
2021/12/09 09:46:31;;;;;;;;;4.75;4.75;;;;;6.53;63.57;100161.91;4993579;28;45363;-63
2021/12/09 09:48:59;;;;;;;;;4.00;4.00;;;;;6.60;63.09;100170.38;4993541;28;45424;-62
2021/12/09 09:51:27;;;;;;;;;6.50;6.50;;;;;6.67;63.29;100179.75;4993454;28;45880;-63
2021/12/09 09:53:53;;;;;;;;;7.25;4.00;;;;;6.62;63.10;100163.22;4991655;28;45467;-63
2021/12/09 09:56:23;;;;;;;;;6.00;6.00;;;;;6.82;62.76;100176.38;4992964;28;45433;-64
2021/12/09 09:58:56;;;;;;;;;2.50;2.00;;;;;6.95;63.01;100182.81;4993662;28;45507;-63
2021/12/09 10:01:23;;;;;;;;;12.50;5.00;;;;;7.01;62.26;100177.22;4992708;28;45481;-63
2021/12/09 10:03:58;;;;;;;;;5.50;4.00;;;;;7.08;62.68;100172.50;4993013;28;45543;-63
2021/12/09 10:06:24;;;;;;;;;10.50;4.75;;;;;7.17;62.07;100181.78;4992366;28;45547;-63
2021/12/09 10:08:50;;;;;;;;;4.25;4.00;;;;;7.19;62.12;100174.63;4987179;28;45459;-63
2021/12/09 10:11:17;;;;;;;;;2.50;1.75;;;;;7.23;61.55;100166.44;4974407;28;46428;-63
2021/12/09 10:13:44;;;;;;;;;4.25;4.25;;;;;7.22;62.40;100167.38;4963216;28;45386;-64
2021/12/09 10:16:22;;;;;;;;;5.50;3.00;;;;;7.26;62.13;100153.06;4973404;28;45252;-63
2021/12/09 10:18:53;;;;;;;;;4.25;4.25;;;;;7.36;61.42;100162.28;4992201;28;45418;-63
2021/12/09 10:21:25;;;;;;;;;3.75;3.75;;;;;7.43;61.75;100156.69;4984913;28;45508;-62
2021/12/09 10:24:04;;;;;;;;;4.50;3.00;;;;;7.49;61.50;100153.72;4988322;28;45583;-61
2021/12/09 10:26:36;;;;;;;;;2.00;2.00;;;;;7.54;61.25;100147.25;4983439;28;45306;-62
2021/12/09 10:29:04;;;;;;;;;3.00;1.50;;;;;7.55;60.58;100135.75;4980284;28;45309;-62
2021/12/09 10:31:39;;;;;;;;;4.00;4.00;;;;;7.59;61.03;100129.38;4989553;28;45355;-63
2021/12/09 10:37:21;;;;;;;;;5.50;5.50;;;;;7.84;61.13;100136.06;4985120;28;45429;-65
2021/12/09 10:40:04;;;;;;;;;2.50;2.00;;;;;7.95;60.36;100134.56;4974533;28;45508;-63
2021/12/09 10:42:43;;;;;;;;;4.00;4.00;;;;;8.04;60.41;100135.00;4992446;28;46211;-63
2021/12/09 10:45:44;;;;;;;;;4.00;4.00;;;;;8.09;59.93;100131.19;4970143;28;45682;-63
2021/12/09 10:51:23;;;;;;;;;7.00;4.00;;;;;8.27;59.94;100118.72;4994790;28;45448;-63
2021/12/09 10:53:46;;;;;;;;;2.00;2.00;;;;;8.40;59.60;100108.34;4994398;28;46122;-63
2021/12/09 10:56:22;;;;;;;;;2.00;2.00;;;;;8.39;58.91;100107.50;4992532;28;45327;-64
2021/12/09 10:58:48;;;;;;;;;5.00;2.00;;;;;8.43;59.60;100097.59;4982189;28;45228;-62
2021/12/09 11:01:20;;;;;;;;;3.00;2.00;;;;;8.38;59.56;100104.94;4994935;28;45578;-62
2021/12/09 11:03:58;;;;;;;;;3.75;2.00;;;;;8.38;59.48;100121.69;4972408;28;45670;-63
2021/12/09 11:06:38;;;;;;;;;5.75;4.00;;;;;8.42;59.35;100104.69;4991715;28;45733;-65
2021/12/09 11:09:07;;;;;;;;;3.25;3.25;;;;;8.44;59.52;100104.59;4991723;28;45457;-63
2021/12/09 11:11:41;;;;;;;;;2.00;1.00;;;;;8.39;59.59;100106.66;4991376;28;45433;-63
2021/12/09 11:14:13;;;;;;;;;5.00;1.00;;;;;8.38;59.18;100099.66;4994907;28;46417;-66
2021/12/09 11:16:42;;;;;;;;;3.50;3.50;;;;;8.46;58.87;100102.72;4995013;28;45431;-66
2021/12/09 11:19:25;;;;;;;;;3.25;3.25;;;;;8.54;59.15;100100.50;5000366;28;45485;-63
2021/12/09 11:21:58;;;;;;;;;2.00;2.00;;;;;8.59;59.16;100082.53;4986710;28;45511;-63
2021/12/09 11:24:29;;;;;;;;;5.75;3.50;;;;;8.68;58.01;100097.94;4988718;28;46497;-63
2021/12/09 11:27:03;;;;;;;;;2.75;2.75;;;;;8.73;58.85;100090.59;4991013;28;45544;-60
2021/12/09 11:29:37;;;;;;;;;5.25;5.25;;;;;8.82;58.76;100095.34;4980987;28;45422;-64
2021/12/09 11:35:15;;;;;;;;;4.50;3.00;;;;;8.94;58.72;100082.34;4994986;28;45540;-63
2021/12/09 11:37:51;;;;;;;;;6.75;4.50;;;;;9.01;57.97;100083.72;4994626;28;47297;-64
2021/12/09 11:40:25;;;;;;;;;5.25;4.00;;;;;9.05;57.22;100080.78;4995230;28;45363;-64
2021/12/09 11:43:00;;;;;;;;;6.00;5.25;;;;;9.04;58.62;100083.53;4993583;28;45441;-65
2021/12/09 11:45:30;;;;;;;;;5.75;4.75;;;;;9.07;57.90;100070.09;4975427;28;47726;-64
2021/12/09 11:47:56;;;;;;;;;17.75;12.25;;;;;9.06;57.79;100073.69;4984568;28;45453;-63
2021/12/09 11:50:47;;;;;;;;;3.00;3.00;;;;;9.08;59.06;100074.44;4994408;28;45490;-64
2021/12/09 11:53:15;;;;;;;;;6.50;5.00;;;;;9.12;57.91;100076.00;4994717;28;45177;-65
2021/12/09 11:55:46;;;;;;;;;6.00;4.50;;;;;9.17;57.33;100071.25;4991826;28;45955;-63
2021/12/09 11:58:21;;;;;;;;;4.50;4.50;;;;;9.21;57.92;100067.47;4993120;28;45489;-63